Time;durP1;ratioP1;P1;durP2;ratioP2;P2;SDS_P1;SDS_P2;PMS_P1;PMS_P2;Temp;Humidity;BMP_temperature;BMP_pressure;BME280_temperature;BME280_humidity;BME280_pressure;Samples;Min_cycle;Max_cycle;Signal;HPM_P1;HPM_P2
2022/05/30 00:02:11;;;;;;;0.50;0.50;;;;;;;6.51;83.11;99367.84;4924662;29;20059;-87
2022/05/30 00:04:39;;;;;;;0.55;0.55;;;;;;;6.49;83.38;99354.63;4916366;29;20550;-86
2022/05/30 00:07:11;;;;;;;0.50;0.50;;;;;;;6.62;83.64;99382.47;4916275;29;20116;-86
2022/05/30 00:09:38;;;;;;;0.60;0.60;;;;;;;6.62;83.54;99393.19;4916697;29;20048;-85
2022/05/30 00:12:06;;;;;;;0.50;0.50;;;;;;;6.54;83.51;99393.41;4919023;29;20051;-86
2022/05/30 00:14:33;;;;;;;0.60;0.60;;;;;;;6.48;84.10;99400.41;4917568;29;20111;-86
2022/05/30 00:17:01;;;;;;;0.60;0.60;;;;;;;6.50;84.39;99396.47;4918817;29;20084;-84
2022/05/30 00:19:28;;;;;;;0.50;0.50;;;;;;;6.43;84.30;99390.34;4904963;29;20056;-86
2022/05/30 00:21:56;;;;;;;0.57;0.57;;;;;;;6.31;84.54;99383.13;4919502;29;20103;-86
2022/05/30 00:24:23;;;;;;;0.60;0.60;;;;;;;6.30;84.54;99376.91;4915951;29;20060;-86
2022/05/30 00:26:51;;;;;;;0.60;0.60;;;;;;;6.34;84.44;99404.97;4914059;29;20103;-87
2022/05/30 00:29:18;;;;;;;0.60;0.60;;;;;;;6.13;84.98;99378.38;4915754;29;20056;-87
2022/05/30 00:31:45;;;;;;;0.60;0.60;;;;;;;6.13;85.32;99402.47;4914617;29;20420;-85
2022/05/30 00:34:12;;;;;;;0.50;0.50;;;;;;;6.08;86.20;99401.25;4915676;29;20086;-86
2022/05/30 00:36:39;;;;;;;0.60;0.60;;;;;;;5.85;86.29;99366.81;4914520;29;20399;-84
2022/05/30 00:39:06;;;;;;;0.60;0.60;;;;;;;5.78;86.54;99379.34;4925426;29;20083;-86
2022/05/30 00:41:35;;;;;;;0.50;0.50;;;;;;;5.88;86.74;99411.09;4933620;29;20134;-86
2022/05/30 00:44:02;;;;;;;0.60;0.60;;;;;;;5.81;87.17;99399.56;4933793;29;20119;-86
2022/05/30 00:46:29;;;;;;;0.60;0.60;;;;;;;5.85;87.63;99411.53;4937473;29;20415;-85
2022/05/30 00:49:00;;;;;;;0.60;0.60;;;;;;;5.67;87.81;99381.81;4935595;29;20071;-87
2022/05/30 00:51:48;;;;;;;0.60;0.60;;;;;;;5.82;88.08;99428.81;4933570;29;20061;-86
2022/05/30 00:54:21;;;;;;;0.60;0.60;;;;;;;5.70;88.07;99400.13;4934570;29;20055;-85
2022/05/30 00:56:51;;;;;;;0.57;0.57;;;;;;;5.76;87.81;99412.72;4917646;29;20048;-86
2022/05/30 00:59:20;;;;;;;0.60;0.60;;;;;;;5.75;87.74;99406.56;4933547;29;20054;-86
2022/05/30 01:01:47;;;;;;;0.63;0.63;;;;;;;5.79;87.92;99420.34;4933532;29;20573;-86
2022/05/30 01:07:09;;;;;;;0.60;0.60;;;;;;;5.59;88.57;99413.09;4919676;29;20548;-86
2022/05/30 01:09:44;;;;;;;0.60;0.60;;;;;;;5.72;88.50;99424.88;4937656;29;20143;-87
2022/05/30 01:12:12;;;;;;;0.70;0.70;;;;;;;5.79;88.99;99426.53;4934318;29;20059;-86
2022/05/30 01:14:43;;;;;;;0.60;0.60;;;;;;;5.88;88.16;99421.81;4917456;29;20052;-86
2022/05/30 01:17:13;;;;;;;0.60;0.60;;;;;;;5.80;87.95;99414.00;4934265;29;20055;-86
2022/05/30 01:20:07;;;;;;;0.60;0.60;;;;;;;5.98;88.01;99427.63;4918495;29;20064;-85
2022/05/30 01:23:09;;;;;;;0.60;0.60;;;;;;;5.94;87.14;99388.88;4917951;29;20052;-85
2022/05/30 01:25:38;;;;;;;0.60;0.60;;;;;;;6.14;86.67;99421.06;4918053;29;20487;-86
2022/05/30 01:28:34;;;;;;;0.68;0.68;;;;;;;6.16;86.64;99423.53;4932676;29;20155;-85
2022/05/30 01:31:01;;;;;;;0.68;0.68;;;;;;;6.16;86.39;99424.34;4932644;29;20059;-86
2022/05/30 01:33:32;;;;;;;0.60;0.60;;;;;;;6.08;86.27;99417.34;4917608;29;20098;-86
2022/05/30 01:35:59;;;;;;;0.60;0.60;;;;;;;5.88;86.28;99407.63;4932931;29;20079;-87
2022/05/30 01:38:28;;;;;;;0.60;0.60;;;;;;;5.75;86.82;99408.41;4936677;29;20499;-87
2022/05/30 01:40:56;;;;;;;0.60;0.60;;;;;;;5.80;86.97;99420.16;4936205;29;20047;-85
2022/05/30 01:43:24;;;;;;;0.60;0.60;;;;;;;5.84;87.40;99434.78;4934435;29;20519;-87
2022/05/30 01:46:06;;;;;;;0.60;0.60;;;;;;;5.78;87.66;99424.91;4932595;29;20535;-87
2022/05/30 01:48:37;;;;;;;0.60;0.60;;;;;;;5.68;87.54;99421.78;4933813;29;20139;-87
2022/05/30 01:51:05;;;;;;;0.60;0.60;;;;;;;5.77;87.67;99430.44;4934866;29;20103;-86
2022/05/30 01:53:32;;;;;;;0.60;0.60;;;;;;;5.77;87.45;99433.13;4933581;29;20047;-85
2022/05/30 01:56:26;;;;;;;0.60;0.60;;;;;;;5.92;87.76;99455.19;4919716;29;20118;-87
2022/05/30 01:58:57;;;;;;;0.60;0.60;;;;;;;5.93;87.68;99451.50;4933374;29;20052;-85
2022/05/30 02:01:53;;;;;;;0.60;0.60;;;;;;;5.96;87.32;99461.84;4894925;29;20072;-86
2022/05/30 02:04:20;;;;;;;0.60;0.60;;;;;;;6.02;87.28;99460.19;4893997;29;20124;-85
2022/05/30 02:06:48;;;;;;;0.60;0.60;;;;;;;6.10;86.67;99456.50;4881772;29;20136;-85
2022/05/30 02:09:15;;;;;;;0.57;0.57;;;;;;;6.12;86.36;99449.09;4910657;29;20045;-85
2022/05/30 02:11:43;;;;;;;0.60;0.60;;;;;;;6.04;86.16;99452.78;4878292;29;20052;-85
2022/05/30 02:14:26;;;;;;;0.60;0.60;;;;;;;6.07;86.25;99450.50;4865050;29;20070;-86
2022/05/30 02:17:04;;;;;;;0.60;0.60;;;;;;;6.14;86.29;99452.38;4895695;29;20078;-85
2022/05/30 02:19:40;;;;;;;0.60;0.60;;;;;;;6.01;86.17;99442.47;4881689;29;20049;-85
2022/05/30 02:22:12;;;;;;;0.60;0.60;;;;;;;6.10;86.17;99451.94;4881797;29;20060;-86
2022/05/30 02:24:40;;;;;;;0.60;0.60;;;;;;;6.18;86.22;99459.81;4897023;29;20401;-86
2022/05/30 02:27:08;;;;;;;0.60;0.60;;;;;;;6.28;86.24;99462.09;4896584;29;20120;-86
2022/05/30 02:29:36;;;;;;;0.70;0.70;;;;;;;6.26;85.88;99454.25;4896927;29;20116;-86
2022/05/30 02:32:06;;;;;;;0.60;0.60;;;;;;;6.36;85.68;99456.53;4896862;29;20061;-87
2022/05/30 02:37:21;;;;;;;0.60;0.60;;;;;;;6.68;84.21;99480.84;4900599;29;20049;-85
2022/05/30 02:39:50;;;;;;;0.60;0.60;;;;;;;6.86;82.93;99483.75;4936943;29;20054;-86
2022/05/30 02:42:56;;;;;;;0.60;0.60;;;;;;;6.88;81.67;99470.09;4926317;29;20422;-86
2022/05/30 02:45:23;;;;;;;0.60;0.60;;;;;;;6.89;81.92;99466.41;4920804;29;20062;-85
2022/05/30 02:47:51;;;;;;;0.60;0.60;;;;;;;7.21;79.97;99479.94;4935444;29;20062;-85
2022/05/30 02:50:18;;;;;;;0.60;0.60;;;;;;;7.36;79.31;99488.56;4919770;29;20074;-86
2022/05/30 02:52:45;;;;;;;0.60;0.60;;;;;;;7.32;79.73;99488.16;4919755;29;20047;-85
2022/05/30 02:55:18;;;;;;;0.70;0.70;;;;;;;7.36;79.74;99489.38;4919580;29;20055;-85
2022/05/30 02:57:50;;;;;;;0.60;0.60;;;;;;;7.32;80.17;99490.03;4935381;29;20122;-86
2022/05/30 03:00:19;;;;;;;0.60;0.60;;;;;;;7.41;80.11;99487.94;4935377;29;20534;-86
2022/05/30 03:02:51;;;;;;;0.60;0.60;;;;;;;7.49;79.45;99495.75;4935121;29;20052;-86
2022/05/30 03:05:19;;;;;;;0.60;0.60;;;;;;;7.53;78.65;99488.91;4940666;29;20055;-86
2022/05/30 03:07:46;;;;;;;0.52;0.52;;;;;;;7.65;77.96;99489.09;4935172;29;20141;-84
2022/05/30 03:10:36;;;;;;;0.60;0.60;;;;;;;7.80;76.97;99497.69;4936311;29;20107;-86
2022/05/30 03:13:05;;;;;;;0.55;0.55;;;;;;;7.99;76.19;99504.00;4934956;29;20052;-86
2022/05/30 03:15:34;;;;;;;0.60;0.60;;;;;;;8.12;74.80;99505.78;4935165;29;20051;-86
2022/05/30 03:18:01;;;;;;;0.57;0.57;;;;;;;8.28;73.97;99520.56;4934869;29;20056;-86
2022/05/30 03:20:29;;;;;;;0.50;0.50;;;;;;;8.29;73.80;99511.47;4936236;29;20055;-86
2022/05/30 03:22:58;;;;;;;0.60;0.60;;;;;;;8.37;74.28;99508.50;4934871;29;20054;-86
2022/05/30 03:25:35;;;;;;;0.60;0.60;;;;;;;8.52;73.38;99535.94;4935034;29;20396;-86
2022/05/30 03:28:03;;;;;;;0.60;0.60;;;;;;;8.64;72.83;99534.19;4934950;29;20146;-84
2022/05/30 03:30:36;;;;;;;0.60;0.60;;;;;;;8.65;73.36;99530.47;4939155;29;20143;-86
2022/05/30 03:33:05;;;;;;;0.60;0.60;;;;;;;8.63;73.32;99527.19;4942245;29;20471;-86
2022/05/30 03:35:34;;;;;;;0.50;0.50;;;;;;;8.65;73.90;99517.00;4936570;29;20055;-86
2022/05/30 03:38:22;;;;;;;0.60;0.60;;;;;;;8.71;73.87;99527.94;4896604;29;20055;-85
2022/05/30 03:41:21;;;;;;;0.60;0.60;;;;;;;8.75;74.06;99518.38;4925771;29;20047;-86
2022/05/30 03:44:17;;;;;;;0.50;0.50;;;;;;;8.85;73.62;99540.25;4865765;29;20057;-86
2022/05/30 03:46:44;;;;;;;0.60;0.60;;;;;;;8.95;73.83;99545.13;4863115;29;20079;-85
2022/05/30 03:49:12;;;;;;;0.60;0.60;;;;;;;9.09;73.42;99547.50;4863186;29;20063;-84
2022/05/30 03:51:39;;;;;;;0.60;0.60;;;;;;;9.15;72.82;99553.03;4856690;29;20057;-86
2022/05/30 03:54:08;;;;;;;0.60;0.60;;;;;;;9.22;72.69;99559.19;4858910;29;20053;-85
2022/05/30 03:56:35;;;;;;;0.50;0.50;;;;;;;9.31;71.98;99547.06;4872664;29;20080;-85
2022/05/30 03:59:06;;;;;;;0.50;0.50;;;;;;;9.44;71.21;99549.59;4854843;29;20101;-85
2022/05/30 04:01:33;;;;;;;0.50;0.50;;;;;;;9.60;70.65;99558.16;4850862;29;20156;-86
2022/05/30 04:04:00;;;;;;;0.50;0.50;;;;;;;9.71;70.26;99554.72;4874628;29;20053;-87
2022/05/30 04:06:28;;;;;;;0.55;0.55;;;;;;;9.88;69.11;99558.44;4861127;29;20053;-85
2022/05/30 04:08:56;;;;;;;0.50;0.50;;;;;;;10.01;68.42;99589.00;4860477;29;20120;-85
2022/05/30 04:11:42;;;;;;;0.60;0.60;;;;;;;9.93;68.77;99558.59;4875851;29;20049;-87
2022/05/30 04:14:09;;;;;;;0.60;0.60;;;;;;;10.01;68.77;99564.72;4860461;29;20197;-86
2022/05/30 04:16:43;;;;;;;0.60;0.60;;;;;;;10.28;68.79;99581.41;4856281;29;20057;-87
2022/05/30 04:19:12;;;;;;;0.50;0.50;;;;;;;10.40;68.02;99603.84;4875474;29;20059;-86
2022/05/30 04:21:39;;;;;;;0.50;0.50;;;;;;;10.51;67.65;99595.00;4900779;29;20115;-86
2022/05/30 04:24:08;;;;;;;0.50;0.50;;;;;;;10.59;67.41;99591.97;4927336;29;20143;-86
2022/05/30 04:26:43;;;;;;;0.50;0.50;;;;;;;10.62;66.25;99590.69;4913029;29;20062;-85
2022/05/30 04:29:12;;;;;;;0.50;0.50;;;;;;;10.81;65.31;99600.38;4927099;29;20388;-86
2022/05/30 04:31:52;;;;;;;0.50;0.50;;;;;;;10.96;64.98;99599.06;4934499;29;20047;-86
2022/05/30 04:34:19;;;;;;;0.50;0.50;;;;;;;10.94;65.10;99584.97;4930948;29;20425;-85
2022/05/30 04:36:46;;;;;;;0.52;0.52;;;;;;;11.14;65.18;99590.91;4908931;29;20047;-85
2022/05/30 04:39:14;;;;;;;0.50;0.50;;;;;;;11.26;64.73;99597.09;4918035;29;20059;-87
2022/05/30 04:42:00;;;;;;;0.57;0.57;;;;;;;11.30;63.91;99600.19;4921558;29;20107;-86
2022/05/30 04:44:56;;;;;;;0.57;0.57;;;;;;;11.37;63.85;99589.22;4887532;29;20842;-88
2022/05/30 04:47:42;;;;;;;0.50;0.50;;;;;;;11.36;63.35;99577.59;4894025;29;20060;-87
2022/05/30 04:50:14;;;;;;;0.50;0.50;;;;;;;11.44;62.59;99569.16;4878666;29;20109;-85
2022/05/30 04:52:43;;;;;;;0.50;0.50;;;;;;;11.62;62.27;99572.75;4876749;29;20048;-84
2022/05/30 04:55:35;;;;;;;0.50;0.50;;;;;;;11.84;61.52;99589.19;4871719;29;20069;-87
2022/05/30 04:58:05;;;;;;;0.50;0.50;;;;;;;12.02;61.13;99588.25;4847020;29;20056;-88
2022/05/30 05:00:45;;;;;;;0.50;0.50;;;;;;;12.14;60.23;99581.72;4866532;29;20492;-86
2022/05/30 05:03:16;;;;;;;0.40;0.40;;;;;;;12.15;59.56;99574.44;4865940;29;20452;-88
2022/05/30 05:05:43;;;;;;;0.50;0.50;;;;;;;12.34;59.44;99578.59;4867530;29;20046;-88
2022/05/30 05:08:36;;;;;;;0.50;0.50;;;;;;;12.56;58.65;99588.75;4876707;29;20061;-85
2022/05/30 05:11:24;;;;;;;0.60;0.60;;;;;;;12.61;57.79;99579.88;4820578;29;20065;-85
2022/05/30 05:14:11;;;;;;;0.50;0.50;;;;;;;12.93;57.79;99586.41;4818514;29;20510;-87
2022/05/30 05:17:04;;;;;;;0.50;0.50;;;;;;;13.07;56.90;99591.50;4814128;29;20058;-88
2022/05/30 05:19:33;;;;;;;0.50;0.50;;;;;;;13.14;55.69;99592.13;4806673;29;20149;-86
2022/05/30 05:22:03;;;;;;;0.50;0.50;;;;;;;13.11;55.12;99581.78;4829695;29;20112;-88
2022/05/30 05:24:31;;;;;;;0.50;0.50;;;;;;;13.21;54.64;99598.22;4843097;29;20144;-83
2022/05/30 05:27:17;;;;;;;0.50;0.50;;;;;;;13.37;53.27;99594.72;4842596;29;20062;-85
2022/05/30 05:29:47;;;;;;;0.50;0.50;;;;;;;13.46;53.60;99589.69;4869957;29;20132;-83
2022/05/30 05:32:15;;;;;;;0.50;0.50;;;;;;;13.60;52.86;99598.31;4860320;29;20060;-84
2022/05/30 05:34:43;;;;;;;0.50;0.50;;;;;;;13.70;52.76;99603.88;4868125;29;20564;-84
2022/05/30 05:37:12;;;;;;;0.50;0.50;;;;;;;13.76;53.79;99597.44;4858613;29;20056;-84
2022/05/30 05:39:49;;;;;;;0.50;0.50;;;;;;;13.94;53.86;99592.78;4859958;29;20068;-84
2022/05/30 05:42:17;;;;;;;0.50;0.50;;;;;;;14.06;52.79;99593.47;4859759;29;20433;-84
2022/05/30 05:44:46;;;;;;;0.40;0.40;;;;;;;14.14;53.37;99584.88;4866536;29;20084;-85
2022/05/30 05:47:14;;;;;;;0.50;0.50;;;;;;;14.29;51.15;99585.03;4851524;29;20057;-85
2022/05/30 05:49:41;;;;;;;0.40;0.40;;;;;;;14.38;50.98;99587.28;4926468;29;20051;-84
2022/05/30 05:52:11;;;;;;;0.40;0.40;;;;;;;14.34;50.80;99564.47;4906983;29;20475;-84
2022/05/30 05:54:38;;;;;;;0.50;0.50;;;;;;;14.48;51.09;99588.25;4931065;29;20044;-84
2022/05/30 05:57:08;;;;;;;0.50;0.50;;;;;;;14.48;50.99;99581.97;4932052;29;20071;-92
2022/05/30 05:59:41;;;;;;;0.40;0.40;;;;;;;14.43;50.38;99581.91;4929491;29;20075;-86
2022/05/30 06:02:09;;;;;;;0.40;0.40;;;;;;;14.47;50.55;99564.88;4896372;29;20602;-85
2022/05/30 06:04:38;;;;;;;0.50;0.50;;;;;;;14.70;50.44;99593.63;4929506;29;20059;-85
2022/05/30 06:07:24;;;;;;;0.50;0.50;;;;;;;14.71;47.77;99595.28;4931076;29;20466;-86
2022/05/30 06:10:19;;;;;;;0.40;0.40;;;;;;;14.59;48.21;99581.03;4914970;29;20055;-84
2022/05/30 06:12:54;;;;;;;0.50;0.50;;;;;;;14.85;48.43;99592.16;4917298;29;20048;-86
2022/05/30 06:15:22;;;;;;;0.40;0.40;;;;;;;14.95;47.49;99578.66;4897475;29;20054;-86
2022/05/30 06:18:08;;;;;;;0.40;0.40;;;;;;;15.01;46.88;99593.91;4920245;29;20051;-86
2022/05/30 06:20:41;;;;;;;0.50;0.50;;;;;;;15.12;46.14;99601.06;4902256;29;20122;-83
2022/05/30 06:23:10;;;;;;;0.50;0.50;;;;;;;15.12;45.87;99583.94;4916752;29;20067;-85
2022/05/30 06:26:09;;;;;;;0.43;0.43;;;;;;;15.33;43.71;99603.94;4855194;29;20065;-84
2022/05/30 06:29:17;;;;;;;0.40;0.40;;;;;;;15.41;44.44;99589.84;4820980;29;20058;-83
2022/05/30 06:31:45;;;;;;;0.40;0.40;;;;;;;15.37;43.47;99594.19;4821652;29;20058;-82
2022/05/30 06:34:13;;;;;;;0.40;0.40;;;;;;;15.42;41.87;99610.56;4821975;29;20046;-84
2022/05/30 06:36:44;;;;;;;0.40;0.40;;;;;;;15.30;41.26;99602.56;4822558;29;20165;-86
2022/05/30 06:39:12;;;;;;;0.50;0.50;;;;;;;15.19;42.38;99592.69;4822151;29;20050;-84
2022/05/30 06:41:59;;;;;;;0.40;0.40;;;;;;;15.24;42.62;99600.88;4821851;29;20058;-85
2022/05/30 06:44:31;;;;;;;0.50;0.50;;;;;;;15.34;42.38;99609.13;4808105;29;20062;-85
2022/05/30 06:47:31;;;;;;;0.40;0.40;;;;;;;15.75;42.16;99614.88;4820456;29;20123;-84
2022/05/30 06:50:21;;;;;;;0.40;0.40;;;;;;;15.87;42.34;99602.94;4840828;29;20573;-83
2022/05/30 06:52:48;;;;;;;0.50;0.50;;;;;;;15.98;41.92;99621.78;4825605;29;20153;-84
2022/05/30 06:55:16;;;;;;;0.40;0.40;;;;;;;16.03;40.63;99619.09;4819951;29;20573;-84
2022/05/30 07:00:30;;;;;;;0.40;0.40;;;;;;;16.08;41.11;99615.56;4821153;29;20054;-83
2022/05/30 07:03:18;;;;;;;0.40;0.40;;;;;;;16.15;41.39;99618.03;4867574;29;20063;-85
2022/05/30 07:06:10;;;;;;;0.40;0.40;;;;;;;16.35;41.53;99623.53;4858385;29;20117;-83
2022/05/30 07:08:58;;;;;;;0.40;0.40;;;;;;;16.39;41.06;99627.38;4851580;29;20482;-83
2022/05/30 07:11:43;;;;;;;0.50;0.50;;;;;;;16.42;40.54;99628.75;4877391;29;20529;-85
2022/05/30 07:14:13;;;;;;;0.40;0.40;;;;;;;16.36;40.40;99630.66;4862359;29;20085;-84
2022/05/30 07:16:41;;;;;;;0.40;0.40;;;;;;;16.39;40.72;99627.38;4858982;29;20061;-85
2022/05/30 07:19:09;;;;;;;0.40;0.40;;;;;;;16.38;40.62;99625.75;4870572;29;20085;-84
2022/05/30 07:21:41;;;;;;;0.30;0.30;;;;;;;16.57;41.31;99615.16;4832603;29;20058;-89
2022/05/30 07:24:35;;;;;;;0.30;0.30;;;;;;;16.10;42.67;99609.84;4866659;29;20140;-84
2022/05/30 07:27:21;;;;;;;0.40;0.40;;;;;;;16.29;41.39;99627.34;4877511;29;20061;-86
2022/05/30 07:30:07;;;;;;;0.40;0.40;;;;;;;16.48;40.35;99633.13;4879008;29;20548;-86
2022/05/30 07:32:55;;;;;;;0.40;0.40;;;;;;;16.50;39.64;99630.13;4894451;29;20412;-85
2022/05/30 07:35:51;;;;;;;0.40;0.40;;;;;;;16.63;40.32;99614.09;4839644;29;20074;-84
2022/05/30 07:38:42;;;;;;;0.40;0.40;;;;;;;17.10;38.75;99642.25;4824519;29;20046;-86
2022/05/30 07:41:30;;;;;;;0.50;0.50;;;;;;;16.83;37.94;99618.78;4839814;29;20050;-85
2022/05/30 07:44:24;;;;;;;0.50;0.50;;;;;;;16.75;37.12;99619.28;4814571;29;20062;-85
2022/05/30 07:47:18;;;;;;;0.50;0.50;;;;;;;17.05;36.52;99634.09;4820699;29;20157;-86
2022/05/30 07:50:14;;;;;;;0.50;0.50;;;;;;;17.47;36.29;99627.50;4820755;29;20093;-85
2022/05/30 07:53:11;;;;;;;0.60;0.60;;;;;;;17.63;37.32;99618.22;4817666;29;20073;-85
2022/05/30 07:55:47;;;;;;;0.50;0.50;;;;;;;17.85;35.97;99644.38;4823095;29;20054;-85
2022/05/30 07:58:14;;;;;;;0.50;0.50;;;;;;;17.87;35.65;99636.75;4823701;29;20115;-88
2022/05/30 08:00:43;;;;;;;0.50;0.50;;;;;;;17.89;34.83;99640.03;4806933;29;20153;-85
2022/05/30 08:03:16;;;;;;;0.50;0.50;;;;;;;17.36;36.69;99636.81;4806614;29;20111;-85
2022/05/30 08:06:04;;;;;;;0.60;0.60;;;;;;;17.46;38.07;99650.44;4805946;29;20058;-83
2022/05/30 08:08:52;;;;;;;0.40;0.40;;;;;;;17.19;37.57;99647.97;4820957;29;20054;-85
2022/05/30 08:11:20;;;;;;;0.63;0.63;;;;;;;17.43;37.21;99645.53;4826482;29;20058;-84
2022/05/30 08:13:54;;;;;;;0.70;0.70;;;;;;;18.25;36.55;99659.84;4863298;29;20071;-85
2022/05/30 08:16:23;;;;;;;0.60;0.60;;;;;;;18.87;35.40;99660.38;4878668;29;20053;-86
2022/05/30 08:19:10;;;;;;;0.60;0.60;;;;;;;19.55;34.68;99658.78;4882299;29;20159;-83
2022/05/30 08:22:05;;;;;;;0.60;0.60;;;;;;;19.77;33.71;99667.31;4894133;29;20048;-85
2022/05/30 08:24:56;;;;;;;0.30;0.30;;;;;;;18.54;34.94;99651.78;4894448;29;20120;-86
2022/05/30 08:27:29;;;;;;;0.60;0.60;;;;;;;18.57;35.96;99683.22;4879600;29;20159;-85
2022/05/30 08:30:00;;;;;;;0.60;0.60;;;;;;;19.13;33.51;99669.22;4898262;29;20135;-84
2022/05/30 08:32:34;;;;;;;0.60;0.60;;;;;;;19.72;30.84;99664.63;4898540;29;20068;-85
2022/05/30 08:35:13;;;;;;;0.32;0.32;;;;;;;20.08;28.93;99677.97;4915122;29;20125;-84
2022/05/30 08:37:42;;;;;;;0.70;0.70;;;;;;;20.01;29.79;99677.50;4883322;29;20048;-84
2022/05/30 08:43:17;;;;;;;0.30;0.30;;;;;;;19.38;31.46;99681.88;4898114;29;20098;-85
2022/05/30 08:46:19;;;;;;;0.30;0.30;;;;;;;18.36;32.95;99682.50;4884332;29;20518;-84
2022/05/30 08:49:21;;;;;;;0.60;0.60;;;;;;;18.11;33.16;99688.84;4892037;29;20060;-84
2022/05/30 08:52:01;;;;;;;0.70;0.70;;;;;;;19.60;30.82;99677.88;4915544;29;20400;-87
2022/05/30 08:54:47;;;;;;;0.70;0.70;;;;;;;20.35;29.93;99664.47;4883157;29;20059;-85
2022/05/30 08:57:59;;;;;;;0.60;0.60;;;;;;;20.80;30.18;99674.34;4899155;29;20048;-84
2022/05/30 09:00:35;;;;;;;0.40;0.40;;;;;;;20.18;30.98;99671.53;4914163;29;20075;-85
2022/05/30 09:04:04;;;;;;;0.68;0.68;;;;;;;20.48;30.62;99671.16;4874974;29;20507;-84
2022/05/30 09:06:35;;;;;;;0.30;0.30;;;;;;;20.96;30.64;99676.59;4878246;29;20053;-84
2022/05/30 09:09:12;;;;;;;0.40;0.40;;;;;;;20.04;31.26;99676.91;4879757;29;20117;-87
2022/05/30 09:12:34;;;;;;;0.70;0.70;;;;;;;21.74;30.78;99673.41;4867473;29;20720;-84
2022/05/30 09:15:31;;;;;;;0.40;0.40;;;;;;;21.95;28.35;99677.44;4846852;29;20066;-85
2022/05/30 09:18:05;;;;;;;0.30;0.30;;;;;;;20.74;30.10;99670.88;4871018;29;20061;-86
2022/05/30 09:20:33;;;;;;;0.50;0.50;;;;;;;20.41;30.05;99656.19;4857134;29;20064;-84
2022/05/30 09:23:05;;;;;;;0.70;0.70;;;;;;;21.49;28.53;99653.53;4840353;29;20053;-86
2022/05/30 09:25:57;;;;;;;0.70;0.70;;;;;;;22.76;27.79;99651.31;4843608;29;20061;-84
2022/05/30 09:28:47;;;;;;;0.60;0.60;;;;;;;24.12;26.32;99664.72;4858892;29;20530;-86
2022/05/30 09:32:19;;;;;;;0.60;0.60;;;;;;;24.18;25.34;99670.91;4850196;29;20059;-85
2022/05/30 09:34:49;;;;;;;0.70;0.70;;;;;;;24.10;25.34;99666.97;4845402;29;20144;-85
2022/05/30 09:37:38;;;;;;;0.60;0.60;;;;;;;25.08;24.35;99675.97;4860343;29;20148;-85
2022/05/30 09:40:39;;;;;;;0.60;0.60;;;;;;;25.21;24.02;99658.44;4817816;29;20433;-85
2022/05/30 09:43:41;;;;;;;0.50;0.50;;;;;;;25.93;23.71;99678.97;4821557;29;20167;-84
2022/05/30 09:46:38;;;;;;;0.50;0.50;;;;;;;26.17;22.82;99674.81;4831524;29;20057;-84
2022/05/30 09:49:17;;;;;;;0.50;0.50;;;;;;;25.61;23.74;99671.22;4842754;29;20053;-85
2022/05/30 09:51:56;;;;;;;0.50;0.50;;;;;;;25.67;23.73;99665.19;4839982;29;20186;-85
2022/05/30 09:54:23;;;;;;;0.60;0.60;;;;;;;23.90;25.60;99684.91;4837671;29;20608;-84
2022/05/30 09:57:11;;;;;;;0.60;0.60;;;;;;;23.34;26.36;99670.59;4842141;29;20130;-84
2022/05/30 10:00:20;;;;;;;0.70;0.70;;;;;;;23.90;25.96;99673.06;4839783;29;20149;-85
2022/05/30 10:03:01;;;;;;;0.60;0.60;;;;;;;24.43;25.15;99677.63;4827040;29;20137;-85
2022/05/30 10:05:30;;;;;;;0.60;0.60;;;;;;;25.64;23.53;99679.66;4826342;29;20062;-85
2022/05/30 10:08:00;;;;;;;0.68;0.68;;;;;;;25.83;23.25;99665.47;4819092;29;20085;-85
2022/05/30 10:10:51;;;;;;;0.50;0.50;;;;;;;25.81;24.38;99656.69;4828232;29;20064;-89
2022/05/30 10:13:40;;;;;;;0.50;0.50;;;;;;;25.88;23.22;99656.22;4826270;29;20061;-84
2022/05/30 10:16:43;;;;;;;0.50;0.50;;;;;;;26.74;22.60;99652.19;4830763;29;20085;-86
2022/05/30 10:19:20;;;;;;;0.60;0.60;;;;;;;26.79;23.00;99640.94;4860728;29;20064;-87
2022/05/30 10:28:49;;;;;;;0.50;0.50;;;;;;;27.04;22.15;99665.97;4873389;29;20279;-86
2022/05/30 10:32:05;;;;;;;0.60;0.60;;;;;;;26.94;22.42;99660.81;4873223;29;20064;-88
2022/05/30 10:34:51;;;;;;;0.60;0.60;;;;;;;27.22;21.67;99653.63;4827412;29;20045;-87
2022/05/30 10:37:37;;;;;;;0.60;0.60;;;;;;;26.59;21.93;99656.38;4853502;29;20145;-85
2022/05/30 10:40:41;;;;;;;0.50;0.50;;;;;;;25.62;22.53;99631.38;4871739;29;20402;-86
2022/05/30 10:43:23;;;;;;;0.50;0.50;;;;;;;24.87;23.23;99634.41;4862707;29;20520;-89
2022/05/30 10:50:51;;;;;;;0.30;0.30;;;;;;;26.35;22.92;99636.78;4888478;29;20055;-89
2022/05/30 10:53:24;;;;;;;0.60;0.60;;;;;;;25.44;24.52;99638.91;4904572;29;20059;-90
2022/05/30 10:56:33;;;;;;;0.60;0.60;;;;;;;27.05;23.60;99625.25;4904936;29;20048;-90
2022/05/30 10:59:29;;;;;;;0.60;0.60;;;;;;;27.73;21.57;99617.38;4876364;29;20050;-89
2022/05/30 11:02:16;;;;;;;0.50;0.50;;;;;;;28.19;21.61;99601.47;4888681;29;20154;-92
2022/05/30 11:05:00;;;;;;;0.50;0.50;;;;;;;28.96;20.41;99620.84;4899784;29;20048;-90
2022/05/30 11:07:50;;;;;;;0.50;0.50;;;;;;;28.50;21.02;99605.63;4893436;29;20048;-89
2022/05/30 11:10:40;;;;;;;0.50;0.50;;;;;;;29.08;20.15;99610.91;4892916;29;20092;-90
2022/05/30 11:13:20;;;;;;;0.40;0.40;;;;;;;29.16;19.07;99591.28;4879426;29;20167;-91
2022/05/30 11:16:13;;;;;;;0.40;0.40;;;;;;;29.15;20.66;99586.91;4879319;29;20112;-85
2022/05/30 11:19:23;;;;;;;0.50;0.50;;;;;;;29.79;19.44;99604.47;4904546;29;20055;-86
2022/05/30 11:22:05;;;;;;;0.50;0.50;;;;;;;29.15;18.82;99589.69;4899432;29;20056;-86
2022/05/30 11:24:33;;;;;;;0.40;0.40;;;;;;;29.03;18.53;99577.78;4898113;29;20048;-92
2022/05/30 11:27:33;;;;;;;0.50;0.50;;;;;;;28.18;19.71;99572.13;4857811;29;1216555;-86
2022/05/30 11:30:21;;;;;;;0.50;0.50;;;;;;;27.73;20.46;99569.44;4918224;29;20074;-89
2022/05/30 11:33:08;;;;;;;0.50;0.50;;;;;;;28.71;20.56;99572.13;4930668;29;20051;-86
2022/05/30 11:35:41;;;;;;;0.50;0.50;;;;;;;30.05;18.58;99575.28;4933914;29;20098;-92
2022/05/30 11:38:30;;;;;;;0.40;0.40;;;;;;;30.20;17.92;99560.53;4925420;29;20083;-89
2022/05/30 11:41:14;;;;;;;0.50;0.50;;;;;;;29.67;17.75;99571.19;4930556;29;20498;-91
2022/05/30 11:44:07;;;;;;;0.40;0.40;;;;;;;29.76;17.53;99571.84;4920515;29;20075;-93
2022/05/30 11:46:49;;;;;;;0.40;0.40;;;;;;;28.87;18.47;99580.53;4937219;29;20083;-92
2022/05/30 11:49:37;;;;;;;0.50;0.50;;;;;;;28.38;19.20;99559.22;4946548;29;20074;-89
2022/05/30 11:52:30;;;;;;;0.50;0.50;;;;;;;29.06;18.62;99569.56;4936468;29;20064;-92
2022/05/30 11:55:17;;;;;;;0.50;0.50;;;;;;;29.34;18.35;99544.50;4919927;29;20056;-91
2022/05/30 11:57:51;;;;;;;0.50;0.50;;;;;;;30.33;17.59;99558.47;4938126;29;20043;-91
2022/05/30 12:00:34;;;;;;;0.50;0.50;;;;;;;30.41;17.45;99543.56;4935037;29;20143;-92
2022/05/30 12:03:22;;;;;;;0.40;0.40;;;;;;;30.91;17.32;99559.69;4936001;29;20082;-92
2022/05/30 12:06:04;;;;;;;0.40;0.40;;;;;;;31.20;16.52;99559.06;4935266;29;20056;-91
2022/05/30 12:08:52;;;;;;;0.40;0.40;;;;;;;31.60;16.31;99557.00;4934423;29;20055;-90
2022/05/30 12:11:27;;;;;;;0.40;0.40;;;;;;;31.08;16.31;99564.81;4934920;29;20100;-91
2022/05/30 12:14:31;;;;;;;0.40;0.40;;;;;;;30.36;17.48;99551.34;4934226;29;20522;-91
2022/05/30 12:17:17;;;;;;;0.40;0.40;;;;;;;30.34;17.37;99548.16;4918544;29;20059;-91
2022/05/30 12:25:47;;;;;;;0.50;0.50;;;;;;;28.69;18.47;99528.06;4934894;29;20040;-90
2022/05/30 12:28:26;;;;;;;0.50;0.50;;;;;;;28.98;18.36;99547.50;4934316;29;20063;-92
2022/05/30 12:30:58;;;;;;;0.50;0.50;;;;;;;30.04;17.49;99534.72;4935606;29;20063;-91
2022/05/30 12:33:28;;;;;;;0.50;0.50;;;;;;;29.92;17.47;99537.63;4935252;29;20055;-91
2022/05/30 12:36:10;;;;;;;0.40;0.40;;;;;;;30.36;16.93;99540.22;4919840;29;20051;-90
2022/05/30 12:38:54;;;;;;;0.50;0.50;;;;;;;31.49;16.24;99534.50;4934592;29;20051;-91
2022/05/30 12:41:28;;;;;;;0.40;0.40;;;;;;;30.88;16.28;99525.81;4933936;29;20051;-90
2022/05/30 12:43:55;;;;;;;0.40;0.40;;;;;;;31.17;16.95;99536.69;4917882;29;20158;-92
2022/05/30 12:46:44;;;;;;;0.40;0.40;;;;;;;32.09;15.69;99528.31;4942560;29;20587;-92
2022/05/30 12:49:33;;;;;;;0.50;0.50;;;;;;;32.21;15.57;99525.28;4933505;29;20058;-91
2022/05/30 12:52:14;;;;;;;0.40;0.40;;;;;;;32.33;15.29;99527.84;4918044;29;20059;-91
2022/05/30 12:55:00;;;;;;;0.40;0.40;;;;;;;31.21;16.00;99546.75;4934305;29;20052;-92
2022/05/30 12:57:35;;;;;;;0.35;0.35;;;;;;;30.58;16.54;99524.78;4934836;29;20154;-91
2022/05/30 13:00:24;;;;;;;;;;;;;;;30.35;16.47;99544.19;4934720;29;20068;-92